createdAt,value
2017-08-20T03:31:27.761Z,59.30
2017-08-20T03:33:55.411Z,58.80
2017-08-20T03:36:23.097Z,58.80
2017-08-20T03:38:51.094Z,58.50
2017-08-20T03:41:18.727Z,58.30
2017-08-20T03:43:46.364Z,58.00
2017-08-20T03:46:14.362Z,58.30
2017-08-20T03:48:41.997Z,59.00
2017-08-20T03:51:09.734Z,59.00
2017-08-20T03:53:37.759Z,59.70
2017-08-20T03:56:05.449Z,59.80
2017-08-20T03:58:33.096Z,60.30
2017-08-20T04:01:01.509Z,59.70
2017-08-20T04:03:29.157Z,59.70
2017-08-20T04:05:56.837Z,59.30
2017-08-20T04:08:24.489Z,59.20
2017-08-20T04:10:52.529Z,59.00
2017-08-20T04:13:21.009Z,59.10
2017-08-20T04:15:49.436Z,58.40
2017-08-20T04:18:17.104Z,58.40
2017-08-20T04:20:44.757Z,57.80
2017-08-20T04:23:12.413Z,57.30
2017-08-20T04:25:40.073Z,57.20
2017-08-20T04:28:07.755Z,57.40
2017-08-20T04:30:35.407Z,57.80
2017-08-20T04:33:03.381Z,57.60
2017-08-20T04:35:31.087Z,57.80
2017-08-20T04:37:59.488Z,58.30
2017-08-20T04:40:27.160Z,58.30
2017-08-20T04:42:54.824Z,58.40
2017-08-20T04:45:22.499Z,58.50
2017-08-20T04:47:50.137Z,58.40
2017-08-20T04:50:18.181Z,58.50
2017-08-20T04:52:45.823Z,58.70
2017-08-20T04:55:13.465Z,58.80
2017-08-20T04:57:41.213Z,58.80
2017-08-20T05:00:08.838Z,58.80
2017-08-20T05:02:37.272Z,58.80
2017-08-20T05:05:04.939Z,58.70
2017-08-20T05:07:32.592Z,58.70
2017-08-20T05:10:00.221Z,58.70
2017-08-20T05:12:28.272Z,58.50
2017-08-20T05:14:56.673Z,58.20
2017-08-20T05:17:24.321Z,58.10
2017-08-20T05:19:52.765Z,58.20
2017-08-20T05:22:20.405Z,58.20
2017-08-20T05:24:48.090Z,58.30
2017-08-20T05:27:15.739Z,58.40
2017-08-20T05:29:43.390Z,58.50
2017-08-20T05:32:11.104Z,58.60
2017-08-20T05:34:39.891Z,59.20
2017-08-20T05:37:08.302Z,58.70
2017-08-20T05:39:35.932Z,58.70
2017-08-20T05:42:04.354Z,58.20
2017-08-20T05:44:31.979Z,58.20
2017-08-20T05:47:00.420Z,57.60
2017-08-20T05:49:28.056Z,57.50
2017-08-20T05:51:55.721Z,57.70
2017-08-20T05:54:23.354Z,57.00
2017-08-20T05:56:51.004Z,56.60
2017-08-20T05:59:19.406Z,55.60
2017-08-20T06:01:47.415Z,55.50
2017-08-20T06:04:15.059Z,55.40
2017-08-20T06:06:42.702Z,55.60
2017-08-20T06:09:10.374Z,55.70
2017-08-20T06:11:38.021Z,56.00
2017-08-20T06:14:05.674Z,56.20
2017-08-20T06:16:33.291Z,56.00
2017-08-20T06:19:01.307Z,56.00
2017-08-20T06:21:28.957Z,56.20
2017-08-20T06:23:56.591Z,56.50
2017-08-20T06:26:24.604Z,55.70
2017-08-20T06:28:52.258Z,55.30
2017-08-20T06:31:19.921Z,56.10
2017-08-20T06:33:47.970Z,56.00
2017-08-20T06:36:16.447Z,54.60
2017-08-20T06:38:44.871Z,54.70
2017-08-20T06:41:12.864Z,54.00
2017-08-20T06:43:40.511Z,55.20
2017-08-20T06:46:08.145Z,54.60
2017-08-20T06:48:35.805Z,54.70
2017-08-20T06:51:03.449Z,55.50
2017-08-20T06:53:31.866Z,56.30
2017-08-20T06:55:59.518Z,56.30
2017-08-20T06:58:27.496Z,55.90
2017-08-20T07:00:55.152Z,56.50
2017-08-20T07:03:22.804Z,57.70
2017-08-20T07:05:50.475Z,57.90
2017-08-20T07:08:18.112Z,58.30
2017-08-20T07:10:46.530Z,55.50
2017-08-20T07:13:14.176Z,55.50
2017-08-20T07:15:41.838Z,55.30
2017-08-20T07:18:09.481Z,53.70
2017-08-20T07:20:38.271Z,51.10
2017-08-20T07:23:05.921Z,51.00
2017-08-20T07:25:34.324Z,52.20
2017-08-20T07:28:02.382Z,52.10
2017-08-20T07:30:30.034Z,52.90
2017-08-20T07:32:58.524Z,52.40
2017-08-20T07:35:26.203Z,52.40
2017-08-20T07:37:53.852Z,51.20
2017-08-20T07:40:21.513Z,49.80
2017-08-20T07:42:49.191Z,48.90
2017-08-20T07:45:16.976Z,48.50
2017-08-20T07:47:44.608Z,47.90
2017-08-20T07:50:12.264Z,47.60
2017-08-20T07:52:39.955Z,46.60
2017-08-20T07:55:07.599Z,46.70
2017-08-20T07:57:35.385Z,44.80
2017-08-20T08:00:03.081Z,43.90
2017-08-20T08:02:30.769Z,44.60
2017-08-20T08:04:59.206Z,44.70
2017-08-20T08:07:26.898Z,44.70
2017-08-20T08:09:55.330Z,45.00
2017-08-20T08:12:23.017Z,45.00
2017-08-20T08:14:50.972Z,44.80
2017-08-20T08:17:18.643Z,45.10
2017-08-20T08:19:46.283Z,46.20
2017-08-20T08:22:13.960Z,44.90
2017-08-20T08:24:41.668Z,44.60
2017-08-20T08:27:10.060Z,42.40
2017-08-20T08:29:37.731Z,43.00
2017-08-20T08:32:05.386Z,41.80
2017-08-20T08:34:33.079Z,42.30
2017-08-20T08:37:00.728Z,43.00
2017-08-20T08:39:28.378Z,41.80
2017-08-20T08:41:56.055Z,40.10
2017-08-20T08:44:23.711Z,40.60
2017-08-20T08:46:51.439Z,40.00
2017-08-20T08:49:19.967Z,41.40
2017-08-20T08:51:47.603Z,41.30
2017-08-20T08:54:15.249Z,41.00
2017-08-20T08:56:43.750Z,43.00
2017-08-20T08:59:11.403Z,43.00
2017-08-20T09:01:39.038Z,40.60
2017-08-20T09:04:06.703Z,43.90
2017-08-20T09:06:34.390Z,44.20
2017-08-20T09:09:02.037Z,43.80
2017-08-20T09:11:30.497Z,45.10
2017-08-20T09:13:58.163Z,45.00
2017-08-20T09:16:25.800Z,44.70
2017-08-20T09:18:53.488Z,44.30
2017-08-20T09:21:21.131Z,42.60
2017-08-20T09:23:48.784Z,42.90
2017-08-20T09:26:16.531Z,41.90
2017-08-20T09:28:44.173Z,38.70
2017-08-20T09:31:11.804Z,35.10
2017-08-20T09:33:40.242Z,37.00
2017-08-20T09:36:07.883Z,36.40
2017-08-20T09:38:35.519Z,39.50
2017-08-20T09:41:03.209Z,41.50
2017-08-20T09:43:30.857Z,40.80
2017-08-20T09:45:58.512Z,40.70
2017-08-20T09:48:26.181Z,40.90
2017-08-20T09:50:53.841Z,35.70
2017-08-20T09:53:21.508Z,33.90
2017-08-20T09:55:49.243Z,32.70
2017-08-20T09:58:16.879Z,36.80
2017-08-20T10:00:44.537Z,35.20
2017-08-20T10:03:12.233Z,29.80
2017-08-20T10:05:39.914Z,28.10
2017-08-20T10:08:07.561Z,27.00
2017-08-20T10:10:36.016Z,23.90
2017-08-20T10:13:03.658Z,23.90
2017-08-20T10:15:31.313Z,23.00
2017-08-20T10:17:59.009Z,23.40
2017-08-20T10:20:26.646Z,22.00
2017-08-20T10:22:54.291Z,21.80
2017-08-20T10:25:21.966Z,22.60
2017-08-20T10:27:49.637Z,22.00
2017-08-20T10:30:17.284Z,19.60
2017-08-20T10:32:44.967Z,20.60
2017-08-20T10:35:12.621Z,24.10
2017-08-20T10:37:40.257Z,22.70
2017-08-20T10:40:07.924Z,22.70
2017-08-20T10:42:35.572Z,21.00
2017-08-20T10:45:03.214Z,21.60
2017-08-20T10:47:31.084Z,19.50
2017-08-20T10:49:58.756Z,19.10
2017-08-20T10:52:26.434Z,17.70
2017-08-20T10:54:54.131Z,17.20
2017-08-20T10:57:21.803Z,17.60
2017-08-20T11:05:39.868Z,22.90
2017-08-20T11:08:08.320Z,22.80
2017-08-20T11:10:36.441Z,22.80
2017-08-20T11:13:04.179Z,21.40
2017-08-20T11:15:32.639Z,18.70
2017-08-20T11:18:00.337Z,18.70
2017-08-20T11:20:28.019Z,17.50
2017-08-20T11:22:56.039Z,18.40
2017-08-20T11:25:23.780Z,17.90
2017-08-20T11:27:51.849Z,20.40
2017-08-20T11:30:19.576Z,20.10
2017-08-20T11:32:48.166Z,19.20
2017-08-20T11:35:15.935Z,21.40
2017-08-20T11:37:43.758Z,25.50
2017-08-20T11:40:11.541Z,29.10
2017-08-20T11:42:39.359Z,31.90
2017-08-20T11:45:07.197Z,31.40
2017-08-20T11:47:36.002Z,28.50
2017-08-20T11:50:04.114Z,28.50
2017-08-20T11:52:32.160Z,27.30
2017-08-20T11:54:59.845Z,24.70
2017-08-20T11:57:27.511Z,22.30
2017-08-20T11:59:55.497Z,22.80
2017-08-20T12:02:23.931Z,23.80
2017-08-20T12:04:51.586Z,23.80
2017-08-20T12:07:19.278Z,25.10
2017-08-20T12:09:46.939Z,24.70
2017-08-20T12:12:14.639Z,25.00
2017-08-20T12:14:42.429Z,26.70
2017-08-20T12:17:10.468Z,26.40
2017-08-20T12:19:38.157Z,26.60
2017-08-20T12:22:05.807Z,27.50
2017-08-20T12:24:33.481Z,28.30
2017-08-20T12:27:01.154Z,27.80
2017-08-20T12:29:28.860Z,28.50
2017-08-20T12:31:56.536Z,28.80
2017-08-20T12:34:25.092Z,28.80
2017-08-20T12:36:52.748Z,28.80
2017-08-20T12:39:21.796Z,29.00
2017-08-20T12:41:49.564Z,28.90
2017-08-20T12:44:17.703Z,30.90
2017-08-20T12:46:46.159Z,32.30
2017-08-20T12:49:13.874Z,32.30
2017-08-20T12:51:41.909Z,33.00
2017-08-20T12:54:10.319Z,32.00
2017-08-20T12:56:38.032Z,31.70
2017-08-20T12:59:05.692Z,31.70
2017-08-20T13:01:33.361Z,30.90
2017-08-20T13:04:01.097Z,29.80
2017-08-20T13:06:28.744Z,30.50
2017-08-20T13:08:56.477Z,30.00
2017-08-20T13:11:24.928Z,31.50
2017-08-20T13:13:52.625Z,31.50
2017-08-20T13:16:20.278Z,31.20
2017-08-20T13:18:49.099Z,35.20
2017-08-20T13:21:16.851Z,35.20
2017-08-20T13:23:45.568Z,35.90
2017-08-20T13:26:13.248Z,32.80
2017-08-20T13:28:40.897Z,32.00
2017-08-20T13:31:08.664Z,31.40
2017-08-20T13:33:36.461Z,32.00
2017-08-20T13:36:04.977Z,33.60
2017-08-20T13:38:35.178Z,33.60
2017-08-20T13:41:03.630Z,33.40
2017-08-20T13:43:31.290Z,33.40
2017-08-20T13:45:58.963Z,33.50
2017-08-20T13:48:26.660Z,31.90
2017-08-20T13:50:54.330Z,32.60
2017-08-20T13:53:22.148Z,31.50
2017-08-20T13:55:49.902Z,31.70
2017-08-20T13:58:17.603Z,32.10
2017-08-20T14:00:46.042Z,31.20
2017-08-20T14:03:13.751Z,31.20
2017-08-20T14:05:41.525Z,32.70
2017-08-20T14:08:09.573Z,31.50
2017-08-20T14:10:38.002Z,32.40
2017-08-20T14:13:05.682Z,32.30
2017-08-20T14:15:33.385Z,33.10
2017-08-20T14:18:01.819Z,31.10
2017-08-20T14:20:29.505Z,31.10
2017-08-20T14:22:57.155Z,32.10
2017-08-20T14:25:25.266Z,31.60
2017-08-20T14:27:53.678Z,33.10
2017-08-20T14:30:21.341Z,33.10
2017-08-20T14:32:49.021Z,33.30
2017-08-20T14:35:16.694Z,32.60
2017-08-20T14:37:44.497Z,33.70
2017-08-20T14:40:12.902Z,35.10
2017-08-20T14:42:40.591Z,35.10
2017-08-20T14:45:08.349Z,33.30
2017-08-20T14:47:36.337Z,34.00
2017-08-20T14:50:04.008Z,33.40
2017-08-20T14:52:31.661Z,33.50
2017-08-20T14:54:59.341Z,34.20
2017-08-20T14:57:27.765Z,33.90
2017-08-20T14:59:55.519Z,33.90
2017-08-20T15:02:23.391Z,34.30
2017-08-20T15:04:51.475Z,33.90
2017-08-20T15:07:19.140Z,33.70
2017-08-20T15:09:46.820Z,33.60
2017-08-20T15:12:14.494Z,33.30
2017-08-20T15:14:42.140Z,32.40
2017-08-20T15:17:09.811Z,33.70
2017-08-20T15:19:37.471Z,33.30
2017-08-20T15:22:05.571Z,33.20
2017-08-20T15:24:33.997Z,33.20
2017-08-20T15:27:01.676Z,33.10
2017-08-20T15:29:29.718Z,33.20
2017-08-20T15:31:57.471Z,33.70
2017-08-20T15:34:25.334Z,36.10
2017-08-20T15:36:53.043Z,34.50
2017-08-20T15:39:20.854Z,36.30
2017-08-20T15:41:48.921Z,35.20
2017-08-20T15:44:17.360Z,33.60
2017-08-20T15:46:45.062Z,33.50
2017-08-20T15:49:14.360Z,35.00
2017-08-20T15:51:42.778Z,35.80
2017-08-20T15:54:10.471Z,35.70
2017-08-20T15:56:38.475Z,34.90
2017-08-20T15:59:06.910Z,34.30
2017-08-20T16:01:34.557Z,34.30
2017-08-20T16:04:02.564Z,33.90
2017-08-20T16:06:30.230Z,33.70
2017-08-20T16:08:57.898Z,34.90
2017-08-20T16:11:26.637Z,34.50
2017-08-20T16:13:54.278Z,34.90
2017-08-20T16:16:21.944Z,34.10
2017-08-20T16:18:49.913Z,32.90
2017-08-20T16:21:17.586Z,33.70
2017-08-20T16:23:45.228Z,32.80
2017-08-20T16:26:13.285Z,34.10
2017-08-20T16:28:41.846Z,34.40
2017-08-20T16:31:09.510Z,34.40
2017-08-20T16:33:37.499Z,34.70
2017-08-20T16:36:06.069Z,34.80
2017-08-20T16:38:33.728Z,34.80
2017-08-20T16:41:01.818Z,34.70
2017-08-20T16:43:30.240Z,34.30
2017-08-20T16:45:57.891Z,34.30
2017-08-20T16:48:26.006Z,35.10
2017-08-20T16:50:53.678Z,34.80
2017-08-20T16:53:22.177Z,34.80
2017-08-20T16:55:50.249Z,34.80
2017-08-20T16:58:18.654Z,33.40
2017-08-20T17:00:46.306Z,33.40
2017-08-20T17:03:14.368Z,33.70
2017-08-20T17:05:42.063Z,34.50
2017-08-20T17:08:09.709Z,34.80
2017-08-20T17:10:37.757Z,34.90
2017-08-20T17:13:06.198Z,34.70
2017-08-20T17:15:33.856Z,34.70
2017-08-20T17:18:01.904Z,34.90
2017-08-20T17:20:29.556Z,35.20
2017-08-20T17:22:57.194Z,35.30
2017-08-20T17:25:25.927Z,35.50
2017-08-20T17:27:53.579Z,35.50
2017-08-20T17:30:21.221Z,35.90
2017-08-20T17:32:49.281Z,35.80
2017-08-20T17:35:16.953Z,36.20
2017-08-20T17:37:44.617Z,36.40
2017-08-20T17:40:12.592Z,36.50
2017-08-20T17:42:40.269Z,36.80
2017-08-20T17:45:07.932Z,37.10
2017-08-20T17:47:35.971Z,37.50
2017-08-20T17:50:03.648Z,37.50
2017-08-20T17:52:31.434Z,38.30
2017-08-20T17:54:59.423Z,38.00
2017-08-20T17:57:27.075Z,38.20
2017-08-20T17:59:54.718Z,38.20
2017-08-20T18:02:22.700Z,38.20
2017-08-20T18:04:50.578Z,39.20
2017-08-20T18:07:18.275Z,39.60
2017-08-20T18:09:46.322Z,39.30
2017-08-20T18:12:14.051Z,39.70
2017-08-20T18:14:41.714Z,39.40
2017-08-20T18:17:09.710Z,39.10
2017-08-20T18:19:37.374Z,39.00
2017-08-20T18:22:05.098Z,39.50
2017-08-20T18:24:33.117Z,39.50
2017-08-20T18:27:00.793Z,39.70
2017-08-20T18:29:29.563Z,39.80
2017-08-20T18:31:57.785Z,39.80
2017-08-20T18:34:25.463Z,40.30
2017-08-20T18:36:53.193Z,40.70
2017-08-20T18:39:21.194Z,41.40
2017-08-20T18:41:49.176Z,41.40
2017-08-20T18:44:16.855Z,41.40
2017-08-20T18:46:44.870Z,41.50
2017-08-20T18:49:12.518Z,41.70
2017-08-20T18:51:40.977Z,41.50
2017-08-20T18:54:08.708Z,41.50
2017-08-20T18:56:36.404Z,41.40
2017-08-20T18:59:04.170Z,41.60
2017-08-20T19:01:31.831Z,41.60
2017-08-20T19:03:59.511Z,41.60
2017-08-20T19:06:27.186Z,41.60
2017-08-20T19:08:54.939Z,41.70
2017-08-20T19:11:22.631Z,41.70
2017-08-20T19:13:50.319Z,41.80
2017-08-20T19:16:18.007Z,41.90
2017-08-20T19:18:45.720Z,42.20
2017-08-20T19:21:13.777Z,43.20
2017-08-20T19:23:41.428Z,42.50
2017-08-20T19:26:09.116Z,42.80
2017-08-20T19:28:37.194Z,42.80
2017-08-20T19:31:04.880Z,43.10
2017-08-20T19:33:32.582Z,43.90
2017-08-20T19:36:00.571Z,44.10
2017-08-20T19:38:28.283Z,44.40
2017-08-20T19:40:55.965Z,44.50
2017-08-20T19:43:25.296Z,44.60
2017-08-20T19:45:53.002Z,44.50
2017-08-20T19:48:20.678Z,44.90
2017-08-20T19:50:48.802Z,45.40
2017-08-20T19:53:16.528Z,46.20
2017-08-20T19:55:44.984Z,46.90
2017-08-20T19:58:13.050Z,46.90
2017-08-20T20:00:40.736Z,47.10
2017-08-20T20:03:08.445Z,46.30
2017-08-20T20:05:36.507Z,46.20
2017-08-20T20:08:04.206Z,46.10
2017-08-20T20:10:31.906Z,46.40
2017-08-20T20:13:00.738Z,47.20
2017-08-20T20:15:28.397Z,47.10
2017-08-20T20:17:56.075Z,47.20
2017-08-20T20:20:24.100Z,47.60
2017-08-20T20:22:52.553Z,48.20
2017-08-20T20:25:20.215Z,48.00
2017-08-20T20:27:48.202Z,48.00
2017-08-20T20:30:16.660Z,47.80
2017-08-20T20:32:44.343Z,47.80
2017-08-20T20:35:13.113Z,48.00
2017-08-20T20:37:40.780Z,47.90
2017-08-20T20:40:08.425Z,48.20
2017-08-20T20:42:36.442Z,48.30
2017-08-20T20:45:05.063Z,48.40
2017-08-20T20:47:33.640Z,48.30
2017-08-20T20:50:01.724Z,48.10
2017-08-20T20:52:29.368Z,48.10
2017-08-20T20:54:57.365Z,48.20
2017-08-20T20:57:25.486Z,48.40
2017-08-20T20:59:54.018Z,48.40
2017-08-20T21:02:21.675Z,48.30
2017-08-20T21:04:49.740Z,48.40
2017-08-20T21:07:17.419Z,48.30
2017-08-20T21:09:45.142Z,48.60
2017-08-20T21:12:13.387Z,48.70
2017-08-20T21:14:41.254Z,48.80
2017-08-20T21:17:08.981Z,48.90
2017-08-20T21:19:37.106Z,49.00
2017-08-20T21:22:04.798Z,48.60
2017-08-20T21:24:32.470Z,49.50
2017-08-20T21:27:00.535Z,48.90
2017-08-20T21:29:28.209Z,48.50
2017-08-20T21:31:56.287Z,48.60
2017-08-20T21:34:24.587Z,48.80
2017-08-20T21:36:52.397Z,48.90
2017-08-20T21:39:20.218Z,48.80
2017-08-20T21:41:47.887Z,48.40
2017-08-20T21:44:16.491Z,49.00
2017-08-20T21:46:44.403Z,48.60
2017-08-20T21:49:12.857Z,49.00
2017-08-20T21:51:41.143Z,49.20
2017-08-20T21:54:08.792Z,50.00
2017-08-20T21:56:36.430Z,49.60
2017-08-20T21:59:05.230Z,49.60
2017-08-20T22:01:33.062Z,49.60
2017-08-20T22:04:00.911Z,50.30
2017-08-20T22:06:28.936Z,49.80
2017-08-20T22:08:56.847Z,49.80
2017-08-20T22:11:24.507Z,50.20
2017-08-20T22:13:52.611Z,50.10
2017-08-20T22:16:21.016Z,50.30
2017-08-20T22:18:48.810Z,50.30
2017-08-20T22:21:17.336Z,50.20
2017-08-20T22:23:45.822Z,50.90
2017-08-20T22:26:14.649Z,51.80
2017-08-20T22:28:42.705Z,51.10
